Time;durP1;ratioP1;P1;durP2;ratioP2;P2;SDS_P1;SDS_P2;PMS_P1;PMS_P2;Temp;Humidity;BMP_temperature;BMP_pressure;BME280_temperature;BME280_humidity;BME280_pressure;Samples;Min_cycle;Max_cycle;Signal;HPM_P1;HPM_P2
2021/06/07 00:00:28;;;;;;;2.13;1.43;;;17.40;99.90;;;;;;5047938;28;20591;-82
2021/06/07 00:02:54;;;;;;;2.30;1.37;;;17.30;99.90;;;;;;5056067;28;20189;-84
2021/06/07 00:05:21;;;;;;;2.20;1.67;;;17.40;99.90;;;;;;5048448;28;20206;-83
2021/06/07 00:07:47;;;;;;;0.90;0.90;;;17.40;99.90;;;;;;5054102;28;20701;-83
2021/06/07 00:10:14;;;;;;;0.83;0.80;;;17.50;99.90;;;;;;5056470;28;20208;-83
2021/06/07 00:12:40;;;;;;;1.90;1.23;;;17.40;99.90;;;;;;5043344;28;20182;-83
2021/06/07 00:15:12;;;;;;;1.37;1.33;;;17.60;99.90;;;;;;5054907;28;20250;-83
2021/06/07 00:17:39;;;;;;;1.60;1.50;;;17.60;99.90;;;;;;5053642;28;20191;-82
2021/06/07 00:20:16;;;;;;;2.33;1.10;;;17.30;99.90;;;;;;5055252;28;20592;-83
2021/06/07 00:22:41;;;;;;;2.07;1.70;;;17.30;99.90;;;;;;5056102;28;20663;-84
2021/06/07 00:25:09;;;;;;;1.20;1.10;;;17.40;99.90;;;;;;5051509;28;20181;-82
2021/06/07 00:27:35;;;;;;;1.73;1.63;;;17.40;99.90;;;;;;5050941;28;20189;-82
2021/06/07 00:30:03;;;;;;;1.93;1.53;;;17.40;99.90;;;;;;5055605;28;20213;-82
2021/06/07 00:32:28;;;;;;;1.10;1.00;;;17.40;99.90;;;;;;5056227;28;20211;-82
2021/06/07 00:34:54;;;;;;;1.60;1.37;;;17.40;99.90;;;;;;5054897;28;20661;-83
2021/06/07 00:37:19;;;;;;;2.80;0.73;;;17.40;99.90;;;;;;5055115;28;20202;-83
2021/06/07 00:39:45;;;;;;;2.43;1.03;;;17.50;99.90;;;;;;5054794;28;20215;-83
2021/06/07 00:42:11;;;;;;;0.90;0.87;;;17.50;99.90;;;;;;5052563;28;20236;-81
2021/06/07 00:44:39;;;;;;;1.40;0.93;;;17.50;99.90;;;;;;5044393;28;20186;-83
2021/06/07 00:47:04;;;;;;;1.17;1.10;;;17.40;99.90;;;;;;5055214;28;20209;-83
2021/06/07 00:49:30;;;;;;;1.63;1.50;;;17.40;99.90;;;;;;5053773;28;20625;-83
2021/06/07 00:51:56;;;;;;;3.23;1.00;;;17.50;99.90;;;;;;5042235;28;20183;-83
2021/06/07 00:54:21;;;;;;;2.67;1.27;;;17.50;99.90;;;;;;5037074;28;20197;-83
2021/06/07 00:56:47;;;;;;;3.03;1.53;;;17.50;99.90;;;;;;5053734;28;20562;-83
2021/06/07 00:59:13;;;;;;;1.83;1.53;;;17.60;99.90;;;;;;5054857;28;20211;-83
2021/06/07 01:01:38;;;;;;;1.50;1.40;;;17.50;99.90;;;;;;5047450;28;20303;-83
2021/06/07 01:04:05;;;;;;;1.43;1.27;;;17.40;99.90;;;;;;5054460;28;20209;-82
2021/06/07 01:06:32;;;;;;;1.33;1.33;;;17.40;99.90;;;;;;5048685;28;20190;-83
2021/06/07 01:08:58;;;;;;;1.87;1.27;;;17.30;99.90;;;;;;5052527;28;20268;-81
2021/06/07 01:11:25;;;;;;;1.57;1.10;;;17.50;99.90;;;;;;5050851;28;20279;-82
2021/06/07 01:13:52;;;;;;;0.77;0.70;;;17.50;99.90;;;;;;5051864;28;20271;-82
2021/06/07 01:16:19;;;;;;;1.53;1.13;;;17.40;99.90;;;;;;5054164;28;20359;-82
2021/06/07 01:18:46;;;;;;;1.03;0.97;;;17.40;99.90;;;;;;5055052;28;20669;-83
2021/06/07 01:21:15;;;;;;;3.20;0.77;;;17.40;99.90;;;;;;5051903;28;20209;-83
2021/06/07 01:23:45;;;;;;;1.47;0.93;;;17.50;99.90;;;;;;5051183;28;20227;-83
2021/06/07 01:26:12;;;;;;;2.67;1.57;;;17.40;99.90;;;;;;5053242;28;20184;-83
2021/06/07 01:28:40;;;;;;;1.53;1.43;;;17.40;99.90;;;;;;5050326;28;20187;-84
2021/06/07 01:31:08;;;;;;;1.20;1.10;;;17.50;99.90;;;;;;5055254;28;20348;-83
2021/06/07 01:33:35;;;;;;;1.33;1.23;;;17.30;99.90;;;;;;5042395;28;20679;-83
2021/06/07 01:36:04;;;;;;;2.30;2.07;;;17.40;99.90;;;;;;5053739;28;20200;-84
2021/06/07 01:38:30;;;;;;;2.63;1.60;;;17.20;99.90;;;;;;5052066;28;20193;-83
2021/06/07 01:41:02;;;;;;;2.53;0.97;;;17.10;99.90;;;;;;5049163;28;20213;-84
2021/06/07 01:43:28;;;;;;;1.90;1.43;;;17.20;99.90;;;;;;5049035;28;20342;-83
2021/06/07 01:45:55;;;;;;;0.70;0.70;;;17.20;99.90;;;;;;5053361;28;20199;-83
2021/06/07 01:48:21;;;;;;;2.73;1.37;;;17.30;99.90;;;;;;5050894;28;20200;-83
2021/06/07 01:50:48;;;;;;;2.17;1.93;;;17.10;99.90;;;;;;5041853;28;20297;-82
2021/06/07 01:53:15;;;;;;;0.90;0.90;;;17.10;99.90;;;;;;5043763;28;20192;-83
2021/06/07 01:55:50;;;;;;;2.83;1.80;;;17.10;99.90;;;;;;5049951;28;20199;-82
2021/06/07 01:58:17;;;;;;;2.30;1.43;;;17.10;99.90;;;;;;5054574;28;20252;-82
2021/06/07 02:01:07;;;;;;;1.33;0.93;;;17.10;99.90;;;;;;5045286;28;20224;-83
2021/06/07 02:03:33;;;;;;;3.47;1.83;;;17.10;99.90;;;;;;5048639;28;20180;-84
2021/06/07 02:06:01;;;;;;;0.90;0.90;;;17.00;99.90;;;;;;5052552;28;20255;-82
2021/06/07 02:08:30;;;;;;;1.00;0.97;;;17.10;99.90;;;;;;5045131;28;20180;-82
2021/06/07 02:11:00;;;;;;;0.97;0.87;;;16.90;99.90;;;;;;5047745;28;20205;-83
2021/06/07 02:13:26;;;;;;;3.37;1.43;;;17.00;99.90;;;;;;5051817;28;20213;-82
2021/06/07 02:16:08;;;;;;;1.77;1.03;;;16.90;99.90;;;;;;5053076;28;20200;-82
2021/06/07 02:18:36;;;;;;;1.80;1.70;;;16.90;99.90;;;;;;5044826;28;20232;-83
2021/06/07 02:21:04;;;;;;;1.90;1.33;;;16.90;99.90;;;;;;5052524;28;20224;-83
2021/06/07 02:23:30;;;;;;;0.97;0.97;;;17.00;99.90;;;;;;5053121;28;20177;-83
2021/06/07 02:25:57;;;;;;;1.13;1.07;;;17.10;99.90;;;;;;5053354;28;20203;-83
2021/06/07 02:28:23;;;;;;;1.47;1.37;;;17.20;99.90;;;;;;5045692;28;20587;-84
2021/06/07 02:30:48;;;;;;;1.93;1.83;;;17.10;99.90;;;;;;5052429;28;20285;-83
2021/06/07 02:33:15;;;;;;;0.53;0.53;;;17.20;99.90;;;;;;5053498;28;20557;-84
2021/06/07 02:35:41;;;;;;;0.70;0.70;;;17.30;99.90;;;;;;5045873;28;20205;-82
2021/06/07 02:38:07;;;;;;;0.80;0.80;;;17.40;99.90;;;;;;5045445;28;20200;-82
2021/06/07 02:40:33;;;;;;;1.27;1.17;;;17.50;99.90;;;;;;5051562;28;20243;-83
2021/06/07 02:42:59;;;;;;;1.10;1.07;;;17.20;99.90;;;;;;5049947;28;20189;-83
2021/06/07 02:45:28;;;;;;;1.87;1.77;;;17.30;99.90;;;;;;5050683;28;20261;-83
2021/06/07 02:47:56;;;;;;;0.43;0.43;;;17.20;99.90;;;;;;5041203;28;20204;-83
2021/06/07 02:50:25;;;;;;;1.40;1.30;;;17.30;99.90;;;;;;5048965;28;20586;-83
2021/06/07 02:52:50;;;;;;;0.60;0.60;;;17.30;99.90;;;;;;5039278;28;20182;-82
2021/06/07 02:55:24;;;;;;;1.07;0.67;;;17.20;99.90;;;;;;5053093;28;20195;-82
2021/06/07 02:57:52;;;;;;;1.40;1.10;;;17.30;99.90;;;;;;5053660;28;20196;-84
2021/06/07 03:00:59;;;;;;;1.27;0.97;;;17.30;99.90;;;;;;5051449;28;20270;-85
2021/06/07 03:03:25;;;;;;;1.47;1.00;;;17.30;99.90;;;;;;5037014;28;20186;-84
2021/06/07 03:05:53;;;;;;;0.87;0.83;;;17.20;99.90;;;;;;5041140;28;20208;-82
2021/06/07 03:08:24;;;;;;;1.57;1.00;;;17.20;99.90;;;;;;5051960;28;20181;-82
2021/06/07 03:10:52;;;;;;;0.93;0.80;;;17.20;99.90;;;;;;5049538;28;20202;-82
2021/06/07 03:13:20;;;;;;;0.87;0.77;;;17.20;99.90;;;;;;5038328;28;20202;-81
2021/06/07 03:15:46;;;;;;;0.60;0.60;;;17.10;99.90;;;;;;5041720;28;20182;-82
2021/06/07 03:18:12;;;;;;;1.40;1.27;;;17.10;99.90;;;;;;5067746;28;20189;-82
2021/06/07 03:20:38;;;;;;;0.67;0.67;;;17.00;99.90;;;;;;5055673;28;20222;-82
2021/06/07 03:23:12;;;;;;;0.27;0.27;;;16.90;99.90;;;;;;5051382;28;20223;-82
2021/06/07 03:25:42;;;;;;;1.07;0.60;;;17.00;99.90;;;;;;5037296;28;20189;-82
2021/06/07 03:28:08;;;;;;;0.63;0.60;;;17.00;99.90;;;;;;5045112;28;20185;-82
2021/06/07 03:30:35;;;;;;;0.40;0.40;;;17.00;99.90;;;;;;5053896;28;20213;-82
2021/06/07 03:33:01;;;;;;;0.60;0.60;;;16.80;99.90;;;;;;5051119;28;20211;-81
2021/06/07 03:35:26;;;;;;;0.30;0.30;;;16.70;99.90;;;;;;5044813;28;20185;-82
2021/06/07 03:37:52;;;;;;;0.50;0.50;;;16.80;99.90;;;;;;5052113;28;20271;-82
2021/06/07 03:40:21;;;;;;;0.37;0.37;;;16.70;99.90;;;;;;5049655;28;20285;-82
2021/06/07 03:42:47;;;;;;;0.83;0.83;;;16.60;99.90;;;;;;5051204;28;20193;-83
2021/06/07 03:45:14;;;;;;;1.50;0.63;;;16.60;99.90;;;;;;5051285;28;20641;-80
2021/06/07 03:47:41;;;;;;;0.87;0.77;;;16.40;99.90;;;;;;5052149;28;20245;-81
2021/06/07 03:50:09;;;;;;;0.67;0.47;;;16.40;99.90;;;;;;5049217;28;20217;-83
2021/06/07 03:52:35;;;;;;;0.30;0.30;;;16.50;99.90;;;;;;5041898;28;20291;-82
2021/06/07 03:55:02;;;;;;;0.30;0.30;;;16.70;99.90;;;;;;5048865;28;20216;-83
2021/06/07 03:57:27;;;;;;;0.60;0.60;;;16.70;99.90;;;;;;5051530;28;20185;-83
2021/06/07 03:59:53;;;;;;;2.67;0.70;;;16.60;99.90;;;;;;5050620;28;20210;-82
2021/06/07 04:02:20;;;;;;;0.47;0.47;;;16.60;99.90;;;;;;5053326;28;20185;-83
2021/06/07 04:04:46;;;;;;;0.50;0.50;;;16.70;99.90;;;;;;5051141;28;20271;-82
2021/06/07 04:07:12;;;;;;;0.33;0.33;;;16.70;99.90;;;;;;5048361;28;20221;-82
2021/06/07 04:09:39;;;;;;;0.80;0.67;;;16.50;99.90;;;;;;5050018;28;20576;-82
2021/06/07 04:12:05;;;;;;;0.67;0.40;;;16.60;99.90;;;;;;5052339;28;20273;-83
2021/06/07 04:14:32;;;;;;;0.30;0.30;;;16.40;99.90;;;;;;5052503;28;20193;-83
2021/06/07 04:16:58;;;;;;;0.83;0.60;;;16.50;99.90;;;;;;5048365;28;20200;-82
2021/06/07 04:19:23;;;;;;;0.40;0.40;;;16.70;99.90;;;;;;5040898;28;20303;-83
2021/06/07 04:21:49;;;;;;;0.30;0.30;;;16.70;99.90;;;;;;5049953;28;20212;-83
2021/06/07 04:24:14;;;;;;;0.33;0.33;;;16.70;99.90;;;;;;5050875;28;20245;-83
2021/06/07 04:26:40;;;;;;;0.27;0.20;;;16.60;99.90;;;;;;5052179;28;20173;-82
2021/06/07 04:29:05;;;;;;;0.37;0.33;;;16.70;99.90;;;;;;5053395;28;20244;-82
2021/06/07 04:31:32;;;;;;;0.60;0.60;;;16.70;99.90;;;;;;5051534;28;20224;-83
2021/06/07 04:33:58;;;;;;;0.50;0.50;;;16.40;99.90;;;;;;5051454;28;20187;-82
2021/06/07 04:36:23;;;;;;;1.23;0.53;;;16.40;99.90;;;;;;5047463;28;20196;-83
2021/06/07 04:38:49;;;;;;;0.70;0.30;;;16.30;99.90;;;;;;5047683;28;20193;-82
2021/06/07 04:41:15;;;;;;;0.30;0.30;;;16.30;99.90;;;;;;5052610;28;20578;-82
2021/06/07 04:43:40;;;;;;;1.17;0.63;;;16.30;99.90;;;;;;5044455;28;20196;-82
2021/06/07 04:46:06;;;;;;;0.57;0.57;;;16.30;99.90;;;;;;5049647;28;20188;-84
2021/06/07 04:48:31;;;;;;;0.70;0.50;;;16.40;99.90;;;;;;5051556;28;20193;-85
2021/06/07 04:50:57;;;;;;;1.70;0.63;;;16.30;99.90;;;;;;5049792;28;20215;-84
2021/06/07 04:53:23;;;;;;;0.40;0.40;;;16.40;99.90;;;;;;5052912;28;20242;-84
2021/06/07 04:55:51;;;;;;;0.37;0.37;;;16.40;99.90;;;;;;5046505;28;20199;-80
2021/06/07 04:58:19;;;;;;;0.30;0.30;;;16.50;99.90;;;;;;5053294;28;20638;-81
2021/06/07 05:00:48;;;;;;;0.50;0.50;;;16.40;99.90;;;;;;5052553;28;20224;-82
2021/06/07 05:03:14;;;;;;;0.47;0.47;;;16.40;99.90;;;;;;5054246;28;20310;-82
2021/06/07 05:05:40;;;;;;;0.53;0.33;;;16.50;99.90;;;;;;5051752;28;20196;-82
2021/06/07 05:08:06;;;;;;;1.70;0.93;;;16.60;99.90;;;;;;5053332;28;20196;-82
2021/06/07 05:10:32;;;;;;;0.30;0.30;;;16.50;99.90;;;;;;5052747;28;20209;-81
2021/06/07 05:12:58;;;;;;;0.63;0.27;;;16.40;99.90;;;;;;5044820;28;20665;-81
2021/06/07 05:15:24;;;;;;;0.30;0.30;;;16.50;99.90;;;;;;5043748;28;20190;-85
2021/06/07 05:17:50;;;;;;;0.37;0.37;;;16.40;99.90;;;;;;5057195;28;20216;-84
2021/06/07 05:20:24;;;;;;;0.60;0.60;;;16.50;99.90;;;;;;5048418;28;20596;-84
2021/06/07 05:22:51;;;;;;;0.60;0.60;;;16.40;99.90;;;;;;5051375;28;20188;-84
2021/06/07 05:25:18;;;;;;;0.40;0.40;;;16.40;99.90;;;;;;5050832;28;20184;-82
2021/06/07 05:27:44;;;;;;;3.37;0.37;;;16.20;99.90;;;;;;5049798;28;20187;-84
2021/06/07 05:30:11;;;;;;;0.33;0.33;;;16.20;99.90;;;;;;5050765;28;20274;-82
2021/06/07 05:32:37;;;;;;;1.13;0.53;;;16.10;99.90;;;;;;5052682;28;20256;-81
2021/06/07 05:35:07;;;;;;;0.70;0.70;;;16.30;99.90;;;;;;5052914;28;20191;-81
2021/06/07 05:37:32;;;;;;;0.40;0.40;;;16.00;99.90;;;;;;5049644;28;20195;-80
2021/06/07 05:39:58;;;;;;;0.50;0.50;;;16.10;99.90;;;;;;5047187;28;20202;-81
2021/06/07 05:42:24;;;;;;;0.83;0.67;;;15.90;99.90;;;;;;5044472;28;20184;-82
2021/06/07 05:44:49;;;;;;;0.33;0.33;;;15.90;99.90;;;;;;5053545;28;20225;-81
2021/06/07 05:47:15;;;;;;;0.27;0.27;;;15.90;99.90;;;;;;5053252;28;20211;-82
2021/06/07 05:49:41;;;;;;;0.40;0.40;;;15.80;99.90;;;;;;5051898;28;20207;-82
2021/06/07 05:52:08;;;;;;;0.50;0.40;;;15.90;99.90;;;;;;5050651;28;20194;-82
2021/06/07 05:54:36;;;;;;;0.40;0.40;;;15.90;99.90;;;;;;5049588;28;20634;-82
2021/06/07 05:57:02;;;;;;;0.63;0.63;;;16.00;99.90;;;;;;5050892;28;20382;-83
2021/06/07 05:59:28;;;;;;;0.40;0.40;;;15.90;99.90;;;;;;5047634;28;20200;-82
2021/06/07 06:01:55;;;;;;;0.63;0.63;;;15.90;99.90;;;;;;5051420;28;20238;-81
2021/06/07 06:04:21;;;;;;;0.30;0.30;;;15.90;99.90;;;;;;5053774;28;20175;-82
2021/06/07 06:06:47;;;;;;;1.40;0.80;;;15.80;99.90;;;;;;5049855;28;20589;-82
2021/06/07 06:09:13;;;;;;;0.37;0.37;;;15.90;99.90;;;;;;5052267;28;20266;-82
2021/06/07 06:11:39;;;;;;;0.30;0.30;;;15.90;99.90;;;;;;5051767;28;20202;-82
2021/06/07 06:14:05;;;;;;;0.40;0.40;;;16.00;99.90;;;;;;5051486;28;20233;-82
2021/06/07 06:16:30;;;;;;;2.27;0.53;;;16.10;99.90;;;;;;5060046;28;20270;-80
2021/06/07 06:18:56;;;;;;;0.37;0.33;;;16.00;99.90;;;;;;5037884;28;20221;-82
2021/06/07 06:21:25;;;;;;;0.20;0.20;;;16.10;99.90;;;;;;5052321;28;20217;-83
2021/06/07 06:23:52;;;;;;;1.50;0.63;;;16.10;99.90;;;;;;5049162;28;20193;-83
2021/06/07 06:26:18;;;;;;;0.40;0.40;;;16.20;99.90;;;;;;5049358;28;20246;-82
2021/06/07 06:28:43;;;;;;;0.73;0.27;;;16.20;99.90;;;;;;5057343;28;20188;-83
2021/06/07 06:31:09;;;;;;;0.30;0.30;;;16.20;99.90;;;;;;5060096;28;20291;-82
2021/06/07 06:33:35;;;;;;;0.53;0.50;;;16.30;99.90;;;;;;5052404;28;20214;-79
2021/06/07 06:36:00;;;;;;;0.60;0.60;;;16.20;99.90;;;;;;5054040;28;20196;-81
2021/06/07 06:38:26;;;;;;;0.20;0.20;;;16.20;99.90;;;;;;5046132;28;20205;-82
2021/06/07 06:40:53;;;;;;;0.40;0.40;;;16.20;99.90;;;;;;5050798;28;20607;-83
2021/06/07 06:43:19;;;;;;;0.50;0.50;;;16.00;99.90;;;;;;5044298;28;20187;-82
2021/06/07 06:45:45;;;;;;;2.03;0.60;;;16.00;99.90;;;;;;5045625;28;20225;-82
2021/06/07 06:48:10;;;;;;;0.37;0.37;;;16.10;99.90;;;;;;5052166;28;20214;-83
2021/06/07 06:50:39;;;;;;;0.77;0.77;;;16.00;99.90;;;;;;5048508;28;20233;-82
2021/06/07 06:53:07;;;;;;;0.20;0.20;;;16.00;99.90;;;;;;5049789;28;20226;-83
2021/06/07 06:55:33;;;;;;;0.30;0.30;;;16.10;99.90;;;;;;5049240;28;20185;-82
2021/06/07 06:57:59;;;;;;;0.27;0.27;;;16.20;99.90;;;;;;5044972;28;20671;-80
2021/06/07 07:00:25;;;;;;;0.50;0.40;;;16.20;99.90;;;;;;5049045;28;20261;-83
2021/06/07 07:02:51;;;;;;;0.10;0.10;;;16.20;99.90;;;;;;5048700;28;20219;-82
2021/06/07 07:05:18;;;;;;;0.20;0.20;;;16.40;99.90;;;;;;5052190;28;20596;-81
2021/06/07 07:07:43;;;;;;;0.33;0.33;;;16.50;99.90;;;;;;5046171;28;20596;-82
2021/06/07 07:10:09;;;;;;;0.20;0.20;;;16.40;99.90;;;;;;5048810;28;20231;-82
2021/06/07 07:12:36;;;;;;;0.73;0.73;;;16.50;99.90;;;;;;5047736;28;20244;-82
2021/06/07 07:15:02;;;;;;;0.20;0.20;;;16.50;99.90;;;;;;5047799;28;20789;-83
2021/06/07 07:17:28;;;;;;;0.50;0.50;;;16.40;99.90;;;;;;5057858;28;20283;-82
2021/06/07 07:19:54;;;;;;;0.10;0.10;;;16.50;99.90;;;;;;5050239;28;20304;-82
2021/06/07 07:22:21;;;;;;;0.33;0.33;;;16.40;99.90;;;;;;5047816;28;20181;-79
2021/06/07 07:24:47;;;;;;;0.47;0.47;;;16.40;99.90;;;;;;5051965;28;20189;-84
2021/06/07 07:27:15;;;;;;;0.47;0.47;;;16.50;99.90;;;;;;5050446;28;20185;-83
2021/06/07 07:29:42;;;;;;;0.70;0.30;;;16.40;99.90;;;;;;5051353;28;20212;-81
2021/06/07 07:32:09;;;;;;;0.30;0.23;;;16.60;99.90;;;;;;5049190;28;20189;-83
2021/06/07 07:34:35;;;;;;;0.30;0.30;;;16.70;99.90;;;;;;5053033;28;20204;-82
2021/06/07 07:37:03;;;;;;;0.50;0.50;;;16.70;99.90;;;;;;5044190;28;20242;-83
2021/06/07 07:39:29;;;;;;;0.37;0.37;;;16.80;99.90;;;;;;5048473;28;20262;-83
2021/06/07 07:41:55;;;;;;;0.40;0.40;;;16.80;99.90;;;;;;5047334;28;20217;-83
2021/06/07 07:44:21;;;;;;;0.20;0.20;;;17.10;99.90;;;;;;5044613;28;20183;-83
2021/06/07 07:46:47;;;;;;;0.10;0.10;;;17.20;99.90;;;;;;5046699;28;20182;-81
2021/06/07 07:49:12;;;;;;;0.30;0.30;;;17.10;99.90;;;;;;5048132;28;20191;-83
2021/06/07 07:51:40;;;;;;;0.20;0.20;;;17.00;99.90;;;;;;5043347;28;20196;-81
2021/06/07 07:54:07;;;;;;;1.50;0.50;;;17.00;99.90;;;;;;5047419;28;20264;-83
2021/06/07 07:56:33;;;;;;;0.20;0.20;;;16.90;99.90;;;;;;5047316;28;20185;-82
2021/06/07 07:58:59;;;;;;;0.30;0.30;;;17.00;99.90;;;;;;5043625;28;20185;-82
2021/06/07 08:01:25;;;;;;;0.10;0.10;;;17.00;99.90;;;;;;5050813;28;20689;-83
2021/06/07 08:03:50;;;;;;;0.23;0.23;;;17.30;99.90;;;;;;5055375;28;20196;-83
2021/06/07 08:06:16;;;;;;;0.20;0.20;;;17.30;99.90;;;;;;5050702;28;20202;-82
2021/06/07 08:08:41;;;;;;;0.30;0.30;;;17.20;99.90;;;;;;5053246;28;20225;-82
2021/06/07 08:11:07;;;;;;;0.20;0.20;;;17.00;99.90;;;;;;5051971;28;20224;-80
2021/06/07 08:13:33;;;;;;;0.57;0.53;;;17.00;99.90;;;;;;5050906;28;20182;-82
2021/06/07 08:15:58;;;;;;;0.83;0.30;;;17.00;99.90;;;;;;5043208;28;20239;-82
2021/06/07 08:18:24;;;;;;;0.30;0.30;;;16.80;99.90;;;;;;5042534;28;20177;-82
2021/06/07 08:20:51;;;;;;;0.30;0.30;;;16.90;99.90;;;;;;5054853;28;20230;-82
2021/06/07 08:23:17;;;;;;;0.47;0.47;;;17.00;99.90;;;;;;5060108;28;20219;-83
2021/06/07 08:25:43;;;;;;;0.10;0.10;;;17.00;99.90;;;;;;5053947;28;20189;-83
2021/06/07 08:28:09;;;;;;;0.20;0.20;;;17.10;99.90;;;;;;5058399;28;20212;-83
2021/06/07 08:30:34;;;;;;;0.40;0.40;;;17.00;99.90;;;;;;5054627;28;20223;-83
2021/06/07 08:33:02;;;;;;;0.20;0.20;;;17.20;99.90;;;;;;5054637;28;20188;-83
2021/06/07 08:35:28;;;;;;;0.10;0.10;;;17.10;99.90;;;;;;5061062;28;20221;-82
2021/06/07 08:37:54;;;;;;;0.40;0.40;;;17.10;99.90;;;;;;5063366;28;20221;-83
2021/06/07 08:40:20;;;;;;;0.73;0.47;;;17.00;99.90;;;;;;5062518;28;20304;-82
2021/06/07 08:42:47;;;;;;;0.50;0.50;;;17.00;99.90;;;;;;5060834;28;20189;-82
2021/06/07 08:45:16;;;;;;;0.50;0.50;;;16.80;99.90;;;;;;5049950;28;20202;-83
2021/06/07 08:47:47;;;;;;;0.40;0.40;;;16.60;99.90;;;;;;5055729;28;20197;-83
2021/06/07 08:50:14;;;;;;;0.30;0.30;;;16.70;99.90;;;;;;5050716;28;20209;-83
2021/06/07 08:52:43;;;;;;;0.20;0.20;;;16.70;99.90;;;;;;5051157;28;20703;-83
2021/06/07 08:55:14;;;;;;;0.40;0.40;;;16.70;99.90;;;;;;5052025;28;20188;-84
2021/06/07 08:57:48;;;;;;;0.27;0.27;;;16.50;99.90;;;;;;5051263;28;20229;-83
2021/06/07 09:00:21;;;;;;;0.30;0.30;;;16.50;99.90;;;;;;5048729;28;20213;-84
2021/06/07 09:02:47;;;;;;;0.20;0.20;;;16.40;99.90;;;;;;5049859;28;20599;-83
2021/06/07 09:05:14;;;;;;;0.20;0.20;;;16.30;99.90;;;;;;5052992;28;20560;-83
2021/06/07 09:07:53;;;;;;;0.20;0.20;;;16.30;99.90;;;;;;5049923;28;20661;-83
2021/06/07 09:10:19;;;;;;;0.10;0.10;;;16.50;99.90;;;;;;5050825;28;20654;-83
2021/06/07 09:12:50;;;;;;;0.20;0.20;;;16.60;99.90;;;;;;5051838;28;20275;-84
2021/06/07 09:15:48;;;;;;;0.20;0.20;;;16.80;99.90;;;;;;5060530;28;20220;-82
2021/06/07 09:18:25;;;;;;;0.30;0.30;;;16.80;99.90;;;;;;5054955;28;20187;-85
2021/06/07 09:21:12;;;;;;;0.53;0.43;;;16.80;99.90;;;;;;5048930;28;20224;-83
2021/06/07 09:23:39;;;;;;;0.30;0.30;;;16.90;99.90;;;;;;5056666;28;20215;-83
2021/06/07 09:26:07;;;;;;;0.20;0.20;;;17.20;99.90;;;;;;5061578;28;20185;-83
2021/06/07 09:28:38;;;;;;;0.23;0.23;;;17.20;99.90;;;;;;5057838;28;20185;-83
2021/06/07 09:31:08;;;;;;;0.30;0.30;;;17.30;99.90;;;;;;5068412;28;20248;-83
2021/06/07 09:33:39;;;;;;;0.20;0.20;;;17.30;99.90;;;;;;5056372;28;20185;-82
2021/06/07 09:36:13;;;;;;;0.30;0.30;;;17.40;99.90;;;;;;5049103;28;20303;-82
2021/06/07 09:39:08;;;;;;;0.33;0.30;;;17.40;99.90;;;;;;5045738;28;20195;-83
2021/06/07 09:41:43;;;;;;;0.27;0.27;;;17.70;99.90;;;;;;5056688;28;20230;-82
2021/06/07 09:44:09;;;;;;;0.40;0.40;;;18.00;99.90;;;;;;5057005;28;20238;-81
2021/06/07 09:46:34;;;;;;;0.27;0.27;;;18.00;99.90;;;;;;5058723;28;20182;-82
2021/06/07 09:49:12;;;;;;;0.40;0.20;;;18.30;99.90;;;;;;5053473;28;20186;-82
2021/06/07 09:51:40;;;;;;;0.10;0.10;;;18.50;99.90;;;;;;5053475;28;20659;-82
2021/06/07 09:54:12;;;;;;;0.30;0.30;;;18.60;99.90;;;;;;5052651;28;20185;-81
2021/06/07 09:56:56;;;;;;;0.37;0.37;;;18.60;99.90;;;;;;5049806;28;20204;-82
2021/06/07 09:59:36;;;;;;;0.30;0.30;;;18.70;99.90;;;;;;5042893;28;20270;-83
2021/06/07 10:02:16;;;;;;;0.40;0.30;;;18.40;99.90;;;;;;5046861;28;20319;-82
2021/06/07 10:04:55;;;;;;;0.30;0.30;;;18.50;99.90;;;;;;5046911;28;20199;-82
2021/06/07 10:07:23;;;;;;;0.67;0.67;;;18.00;99.90;;;;;;5038802;28;20181;-83
2021/06/07 10:10:13;;;;;;;0.33;0.30;;;18.10;99.90;;;;;;5048318;28;20292;-83
2021/06/07 10:12:39;;;;;;;0.40;0.40;;;17.80;99.90;;;;;;5041495;28;20193;-83
2021/06/07 10:15:07;;;;;;;0.37;0.37;;;17.90;99.90;;;;;;5040040;28;20194;-83
2021/06/07 10:17:33;;;;;;;0.83;0.83;;;18.10;99.90;;;;;;5048024;28;20193;-82
2021/06/07 10:22:44;;;;;;;0.60;0.60;;;18.20;99.90;;;;;;5015409;28;20199;-81
2021/06/07 10:25:11;;;;;;;2.37;0.93;;;18.30;99.90;;;;;;5046572;28;20622;-82
2021/06/07 10:27:37;;;;;;;0.40;0.40;;;18.30;99.90;;;;;;5048109;28;20659;-82
2021/06/07 10:30:12;;;;;;;0.60;0.60;;;18.20;99.90;;;;;;5048968;28;20204;-85
2021/06/07 10:32:38;;;;;;;0.50;0.50;;;18.30;99.90;;;;;;5047295;28;20187;-85
2021/06/07 10:35:05;;;;;;;0.67;0.67;;;18.30;99.90;;;;;;5045776;28;20564;-83
2021/06/07 10:37:32;;;;;;;0.50;0.50;;;18.30;99.90;;;;;;5043313;28;20185;-83
2021/06/07 10:40:20;;;;;;;0.57;0.57;;;18.50;99.90;;;;;;5041385;28;20203;-83
2021/06/07 10:43:06;;;;;;;0.70;0.60;;;18.80;99.90;;;;;;5047729;28;20212;-84
2021/06/07 10:45:37;;;;;;;0.37;0.37;;;18.70;99.90;;;;;;5045040;28;20613;-83
2021/06/07 10:48:04;;;;;;;0.67;0.60;;;18.80;99.90;;;;;;5042122;28;20278;-83
2021/06/07 10:50:32;;;;;;;0.97;0.70;;;18.60;99.90;;;;;;5042208;28;20696;-83
2021/06/07 10:53:02;;;;;;;0.50;0.50;;;18.60;99.90;;;;;;5046806;28;20235;-84
2021/06/07 10:55:41;;;;;;;0.77;0.70;;;18.80;99.90;;;;;;5044960;28;20178;-83
2021/06/07 10:58:13;;;;;;;0.97;0.67;;;18.90;99.90;;;;;;5046476;28;20605;-82
2021/06/07 11:00:40;;;;;;;2.33;0.60;;;18.90;99.90;;;;;;5046036;28;20208;-83
2021/06/07 11:03:17;;;;;;;0.60;0.60;;;18.60;99.90;;;;;;5050129;28;20219;-83
2021/06/07 11:05:44;;;;;;;0.90;0.63;;;18.60;99.90;;;;;;5045800;28;20600;-82
2021/06/07 11:08:31;;;;;;;0.77;0.77;;;18.50;99.90;;;;;;5047214;28;20189;-83
2021/06/07 11:11:13;;;;;;;0.57;0.57;;;18.50;99.90;;;;;;5043791;28;20208;-82
2021/06/07 11:14:01;;;;;;;0.50;0.50;;;18.40;99.90;;;;;;5046041;28;20226;-82
2021/06/07 11:16:39;;;;;;;0.67;0.67;;;18.90;99.90;;;;;;5047482;28;20291;-82
2021/06/07 11:19:17;;;;;;;0.60;0.60;;;19.10;99.90;;;;;;5041495;28;20203;-81
2021/06/07 11:22:00;;;;;;;0.67;0.60;;;19.10;99.90;;;;;;5047847;28;20769;-82
2021/06/07 11:24:31;;;;;;;0.43;0.43;;;19.20;99.90;;;;;;5048569;28;20188;-82
2021/06/07 11:26:58;;;;;;;0.63;0.53;;;19.10;99.90;;;;;;5049345;28;20181;-86
2021/06/07 11:29:25;;;;;;;0.30;0.30;;;19.10;99.90;;;;;;5049366;28;20207;-82
2021/06/07 11:31:52;;;;;;;0.30;0.30;;;19.00;99.90;;;;;;5049348;28;20181;-85
2021/06/07 11:34:39;;;;;;;0.80;0.67;;;19.00;99.90;;;;;;5040433;28;20577;-82
2021/06/07 11:37:05;;;;;;;0.40;0.40;;;19.20;99.90;;;;;;5050891;28;20193;-84
2021/06/07 11:39:43;;;;;;;0.50;0.50;;;19.20;99.90;;;;;;5065704;28;20206;-84
2021/06/07 11:42:18;;;;;;;0.47;0.47;;;19.00;99.90;;;;;;5054028;28;20217;-84
2021/06/07 11:47:10;;;;;;;0.50;0.50;;;19.00;99.90;;;;;;5057810;28;20189;-85
2021/06/07 11:49:36;;;;;;;0.40;0.40;;;18.80;99.90;;;;;;5055825;28;20212;-84
2021/06/07 11:52:08;;;;;;;1.90;0.73;;;19.00;99.90;;;;;;5056312;28;20190;-84
2021/06/07 11:54:34;;;;;;;0.70;0.70;;;19.40;99.90;;;;;;5056241;28;20177;-84
2021/06/07 11:57:05;;;;;;;0.83;0.73;;;19.10;99.90;;;;;;5055823;28;20182;-84
2021/06/07 11:59:33;;;;;;;1.43;0.70;;;19.10;99.90;;;;;;5057634;28;20194;-83
2021/06/07 12:01:59;;;;;;;0.63;0.63;;;19.40;99.90;;;;;;5055993;28;20229;-84
2021/06/07 12:04:31;;;;;;;0.80;0.80;;;19.70;99.90;;;;;;5057626;28;20178;-84
2021/06/07 12:07:02;;;;;;;0.73;0.73;;;20.00;99.90;;;;;;5048072;28;20173;-83
2021/06/07 12:09:28;;;;;;;0.50;0.50;;;20.00;99.90;;;;;;5056024;28;20209;-84
2021/06/07 12:11:54;;;;;;;0.57;0.40;;;19.90;99.90;;;;;;5055899;28;20196;-84
2021/06/07 12:14:33;;;;;;;0.77;0.70;;;20.10;99.90;;;;;;5056027;28;20192;-84
2021/06/07 12:17:04;;;;;;;0.77;0.77;;;19.80;99.90;;;;;;5068111;28;20173;-84
2021/06/07 12:19:32;;;;;;;1.40;0.50;;;19.90;99.90;;;;;;5053620;28;20307;-84
2021/06/07 12:21:59;;;;;;;1.40;0.67;;;19.80;99.90;;;;;;5051557;28;20270;-84
2021/06/07 12:24:25;;;;;;;0.70;0.70;;;19.90;99.90;;;;;;5054944;28;20182;-83
2021/06/07 12:29:43;;;;;;;0.67;0.60;;;20.30;99.90;;;;;;5054198;28;20232;-83
2021/06/07 12:32:11;;;;;;;0.60;0.60;;;20.20;99.90;;;;;;5059250;28;20244;-83
2021/06/07 12:34:57;;;;;;;0.70;0.70;;;20.40;99.90;;;;;;5058070;28;20221;-81
2021/06/07 12:37:28;;;;;;;1.20;0.60;;;20.30;99.90;;;;;;5056282;28;20280;-83
2021/06/07 12:40:30;;;;;;;0.57;0.57;;;20.90;99.90;;;;;;5053948;28;20292;-83
2021/06/07 12:43:10;;;;;;;0.53;0.53;;;20.50;99.90;;;;;;5044958;28;20181;-82
2021/06/07 12:45:40;;;;;;;1.73;0.57;;;20.40;99.90;;;;;;5051396;28;20707;-83
2021/06/07 12:48:22;;;;;;;0.60;0.60;;;20.30;99.90;;;;;;5051956;28;20178;-83
2021/06/07 12:50:50;;;;;;;0.50;0.50;;;20.40;99.90;;;;;;5051256;28;20293;-83
2021/06/07 12:53:16;;;;;;;0.40;0.40;;;20.40;99.90;;;;;;5054960;28;20232;-83
2021/06/07 12:55:43;;;;;;;0.40;0.40;;;20.40;99.90;;;;;;5057124;28;20189;-83
2021/06/07 12:58:15;;;;;;;3.40;0.87;;;20.60;99.90;;;;;;5053356;28;20257;-82
2021/06/07 13:00:47;;;;;;;1.47;0.60;;;20.80;99.90;;;;;;5047342;28;20207;-83
2021/06/07 13:03:20;;;;;;;1.67;0.97;;;20.50;99.90;;;;;;5054371;28;20292;-85